Time;durP1;ratioP1;P1;durP2;ratioP2;P2;SDS_P1;SDS_P2;PMS_P1;PMS_P2;Temp;Humidity;BMP_temperature;BMP_pressure;BME280_temperature;BME280_humidity;BME280_pressure;Samples;Min_cycle;Max_cycle;Signal;HPM_P1;HPM_P2
2022/06/24 00:00:35;;;;;;;9.00;2.35;;;;;;;;;;5066278;28;20116;-59
2022/06/24 00:03:04;;;;;;;10.27;2.25;;;;;;;;;;5067608;28;20028;-59
2022/06/24 00:05:29;;;;;;;10.82;2.58;;;;;;;;;;5063737;28;20356;-59
2022/06/24 00:08:01;;;;;;;10.95;3.03;;;;;;;;;;5066222;28;20033;-59
2022/06/24 00:10:33;;;;;;;12.80;2.50;;;;;;;;;;5066962;28;20025;-58
2022/06/24 00:13:03;;;;;;;11.43;3.17;;;;;;;;;;5069178;28;20037;-59
2022/06/24 00:15:37;;;;;;;8.65;2.97;;;;;;;;;;5062901;28;20048;-59
2022/06/24 00:18:13;;;;;;;10.35;3.80;;;;;;;;;;5063724;28;20031;-59
2022/06/24 00:20:47;;;;;;;6.75;2.35;;;;;;;;;;5061295;28;20021;-57
2022/06/24 00:23:18;;;;;;;8.40;2.67;;;;;;;;;;5068370;28;20032;-58
2022/06/24 00:25:49;;;;;;;10.65;2.60;;;;;;;;;;5064101;28;20066;-58
2022/06/24 00:28:15;;;;;;;8.10;2.47;;;;;;;;;;5064600;28;20028;-58
2022/06/24 00:30:45;;;;;;;8.52;2.70;;;;;;;;;;5064703;28;20089;-58
2022/06/24 00:33:36;;;;;;;6.53;2.63;;;;;;;;;;5062853;28;20071;-58
2022/06/24 00:36:06;;;;;;;8.52;2.70;;;;;;;;;;5059665;28;20044;-58
2022/06/24 00:38:36;;;;;;;9.77;2.50;;;;;;;;;;5067596;28;20070;-58
2022/06/24 00:41:28;;;;;;;13.05;2.80;;;;;;;;;;5059087;28;20036;-58
2022/06/24 00:44:00;;;;;;;7.63;2.88;;;;;;;;;;5054826;28;20515;-58
2022/06/24 00:46:33;;;;;;;9.68;2.70;;;;;;;;;;5058499;28;20036;-59
2022/06/24 00:48:59;;;;;;;9.85;2.88;;;;;;;;;;5060030;28;20500;-60
2022/06/24 00:51:36;;;;;;;9.98;3.30;;;;;;;;;;5059498;28;20039;-59
2022/06/24 00:54:13;;;;;;;8.10;2.90;;;;;;;;;;5062818;28;20036;-59
2022/06/24 00:56:39;;;;;;;5.97;3.05;;;;;;;;;;5067046;28;20073;-59
2022/06/24 00:59:07;;;;;;;11.23;3.60;;;;;;;;;;5069727;28;20025;-58
2022/06/24 01:01:36;;;;;;;11.63;3.53;;;;;;;;;;5065765;28;20444;-60
2022/06/24 01:04:13;;;;;;;6.70;3.45;;;;;;;;;;5065604;28;20047;-58
2022/06/24 01:06:40;;;;;;;11.77;3.65;;;;;;;;;;5066074;28;20275;-58
2022/06/24 01:09:07;;;;;;;9.35;3.47;;;;;;;;;;5063534;28;20029;-58
2022/06/24 01:11:38;;;;;;;10.57;4.03;;;;;;;;;;5060234;28;20094;-58
2022/06/24 01:14:05;;;;;;;10.43;3.95;;;;;;;;;;5069020;28;20088;-60
2022/06/24 01:16:30;;;;;;;12.63;3.97;;;;;;;;;;5059597;28;20476;-59
2022/06/24 01:19:02;;;;;;;9.90;3.20;;;;;;;;;;5063405;28;20086;-59
2022/06/24 01:21:40;;;;;;;10.85;3.33;;;;;;;;;;5062208;28;20467;-59
2022/06/24 01:24:15;;;;;;;14.98;4.20;;;;;;;;;;5059062;28;20047;-60
2022/06/24 01:26:43;;;;;;;7.70;3.58;;;;;;;;;;5066345;28;20054;-59
2022/06/24 01:29:09;;;;;;;11.63;3.13;;;;;;;;;;5060948;28;20040;-59
2022/06/24 01:31:34;;;;;;;11.85;3.65;;;;;;;;;;5065339;28;20074;-58
2022/06/24 01:34:00;;;;;;;8.65;3.50;;;;;;;;;;5060734;28;20028;-58
2022/06/24 01:36:25;;;;;;;10.98;3.63;;;;;;;;;;5057077;28;20071;-58
2022/06/24 01:38:51;;;;;;;10.10;3.25;;;;;;;;;;5061761;28;20387;-58
2022/06/24 01:41:17;;;;;;;11.68;3.30;;;;;;;;;;5065263;28;20021;-58
2022/06/24 01:43:43;;;;;;;11.85;3.22;;;;;;;;;;5066329;28;20054;-57
2022/06/24 01:46:11;;;;;;;11.15;2.97;;;;;;;;;;5060848;28;20039;-59
2022/06/24 01:48:37;;;;;;;9.15;3.00;;;;;;;;;;5063001;28;20029;-58
2022/06/24 01:51:03;;;;;;;10.23;3.22;;;;;;;;;;5065927;28;20531;-58
2022/06/24 01:53:28;;;;;;;11.00;3.13;;;;;;;;;;5071591;28;20072;-58
2022/06/24 01:55:53;;;;;;;9.40;4.10;;;;;;;;;;5066341;28;20033;-58
2022/06/24 01:58:19;;;;;;;14.13;3.70;;;;;;;;;;5067967;28;20024;-59
2022/06/24 02:00:44;;;;;;;10.73;4.30;;;;;;;;;;5063436;28;20454;-58
2022/06/24 02:03:10;;;;;;;11.70;3.58;;;;;;;;;;5068108;28;20488;-58
2022/06/24 02:05:35;;;;;;;11.73;3.30;;;;;;;;;;5066303;28;20107;-58
2022/06/24 02:08:00;;;;;;;12.75;3.75;;;;;;;;;;5072329;28;20064;-58
2022/06/24 02:13:26;;;;;;;12.05;3.38;;;;;;;;;;5064657;28;20445;-58
2022/06/24 02:15:56;;;;;;;13.38;3.72;;;;;;;;;;5065653;28;20032;-58
2022/06/24 02:18:23;;;;;;;12.82;3.38;;;;;;;;;;5073304;28;20109;-58
2022/06/24 02:20:49;;;;;;;14.55;3.30;;;;;;;;;;5069929;28;20025;-59
2022/06/24 02:23:15;;;;;;;9.57;3.35;;;;;;;;;;5066633;28;20085;-58
2022/06/24 02:25:40;;;;;;;10.23;3.25;;;;;;;;;;5063453;28;20096;-58
2022/06/24 02:28:06;;;;;;;7.43;3.50;;;;;;;;;;5061688;28;20540;-58
2022/06/24 02:30:31;;;;;;;8.00;3.30;;;;;;;;;;5065393;28;20133;-58
2022/06/24 02:32:56;;;;;;;11.75;4.30;;;;;;;;;;5061115;28;20025;-58
2022/06/24 02:35:22;;;;;;;13.07;3.50;;;;;;;;;;5060779;28;20025;-58
2022/06/24 02:37:47;;;;;;;7.80;3.10;;;;;;;;;;5062496;28;20024;-58
2022/06/24 02:42:58;;;;;;;8.93;3.88;;;;;;;;;;5062537;28;20047;-58
2022/06/24 02:45:24;;;;;;;11.40;3.40;;;;;;;;;;5066857;28;20021;-58
2022/06/24 02:47:49;;;;;;;10.40;3.08;;;;;;;;;;5065549;28;20028;-58
2022/06/24 02:50:15;;;;;;;28.10;4.32;;;;;;;;;;5069853;28;20028;-59
2022/06/24 02:52:41;;;;;;;10.18;3.08;;;;;;;;;;5072108;28;20158;-58
2022/06/24 02:55:06;;;;;;;10.88;3.60;;;;;;;;;;5070451;28;20028;-58
2022/06/24 02:57:32;;;;;;;7.43;3.28;;;;;;;;;;5069729;28;20377;-58
2022/06/24 02:59:57;;;;;;;14.15;3.45;;;;;;;;;;5068862;28;20025;-58
2022/06/24 03:02:23;;;;;;;14.55;3.30;;;;;;;;;;5068922;28;20037;-58
2022/06/24 03:04:48;;;;;;;8.27;3.10;;;;;;;;;;5070325;28;20537;-58
2022/06/24 03:07:14;;;;;;;9.27;3.30;;;;;;;;;;5066069;28;20031;-59
2022/06/24 03:09:39;;;;;;;9.93;3.10;;;;;;;;;;5065987;28;20177;-58
2022/06/24 03:12:05;;;;;;;7.65;3.38;;;;;;;;;;5066559;28;20102;-59
2022/06/24 03:14:30;;;;;;;9.20;3.33;;;;;;;;;;5064375;28;20028;-58
2022/06/24 03:16:56;;;;;;;10.27;3.30;;;;;;;;;;5069203;28;20033;-59
2022/06/24 03:19:21;;;;;;;12.50;3.50;;;;;;;;;;5058778;28;20048;-59
2022/06/24 03:21:46;;;;;;;11.23;3.25;;;;;;;;;;5062817;28;20030;-58
2022/06/24 03:24:12;;;;;;;9.73;3.97;;;;;;;;;;5062275;28;20124;-58
2022/06/24 03:26:37;;;;;;;10.90;3.97;;;;;;;;;;5069524;28;20032;-59
2022/06/24 03:29:03;;;;;;;11.73;3.58;;;;;;;;;;5062802;28;20507;-58
2022/06/24 03:31:28;;;;;;;10.85;3.28;;;;;;;;;;5059909;28;20059;-58
2022/06/24 03:33:55;;;;;;;13.93;4.03;;;;;;;;;;5066176;28;20381;-57
2022/06/24 03:36:21;;;;;;;12.00;3.97;;;;;;;;;;5060441;28;20028;-58
2022/06/24 03:38:47;;;;;;;11.27;3.88;;;;;;;;;;5062927;28;20484;-59
2022/06/24 03:41:13;;;;;;;15.23;5.13;;;;;;;;;;5066143;28;20028;-59
2022/06/24 03:43:38;;;;;;;14.63;4.15;;;;;;;;;;5060785;28;20024;-59
2022/06/24 03:46:04;;;;;;;13.38;4.00;;;;;;;;;;5066557;28;20036;-58
2022/06/24 03:48:30;;;;;;;15.68;4.18;;;;;;;;;;5067237;28;20031;-59
2022/06/24 03:50:56;;;;;;;17.17;4.30;;;;;;;;;;5069333;28;20028;-59
2022/06/24 03:53:22;;;;;;;12.82;4.47;;;;;;;;;;5070944;28;20043;-58
2022/06/24 03:55:51;;;;;;;10.85;4.15;;;;;;;;;;5067413;28;20017;-59
2022/06/24 03:58:17;;;;;;;11.88;4.38;;;;;;;;;;5069476;28;20482;-58
2022/06/24 04:00:43;;;;;;;11.68;4.15;;;;;;;;;;5067879;28;20035;-58
2022/06/24 04:03:08;;;;;;;12.15;3.85;;;;;;;;;;5067526;28;20028;-59
2022/06/24 04:05:34;;;;;;;15.43;4.60;;;;;;;;;;5064463;28;20396;-59
2022/06/24 04:07:59;;;;;;;10.88;3.70;;;;;;;;;;5066041;28;20036;-58
2022/06/24 04:10:25;;;;;;;9.85;3.78;;;;;;;;;;5064848;28;20078;-58
2022/06/24 04:12:52;;;;;;;8.25;3.95;;;;;;;;;;5067745;28;20086;-60
2022/06/24 04:15:17;;;;;;;11.05;4.03;;;;;;;;;;5066385;28;20024;-58
2022/06/24 04:17:43;;;;;;;9.88;3.58;;;;;;;;;;5066063;28;20029;-59
2022/06/24 04:20:09;;;;;;;11.00;3.58;;;;;;;;;;5061727;28;20252;-59
2022/06/24 04:22:36;;;;;;;6.90;3.63;;;;;;;;;;5060572;28;20082;-59
2022/06/24 04:25:02;;;;;;;10.15;4.47;;;;;;;;;;5063539;28;20058;-59
2022/06/24 04:27:28;;;;;;;8.30;4.45;;;;;;;;;;5063768;28;20020;-58
2022/06/24 04:30:07;;;;;;;10.93;3.35;;;;;;;;;;5064576;28;20577;-60
2022/06/24 04:32:32;;;;;;;;;;;;;;;;;;5062524;28;20050;-58
2022/06/24 04:34:58;;;;;;;11.45;3.78;;;;;;;;;;5063269;28;19913;-60
2022/06/24 04:37:23;;;;;;;9.43;3.60;;;;;;;;;;5061680;28;20120;-58
2022/06/24 04:39:49;;;;;;;7.07;3.13;;;;;;;;;;5065627;28;20052;-60
2022/06/24 04:42:15;;;;;;;19.38;3.88;;;;;;;;;;5064497;28;20028;-59
2022/06/24 04:44:40;;;;;;;10.27;3.85;;;;;;;;;;5061884;28;20513;-58
2022/06/24 04:47:06;;;;;;;14.43;4.20;;;;;;;;;;5065169;28;20115;-59
2022/06/24 04:49:34;;;;;;;14.85;5.10;;;;;;;;;;5065947;28;20031;-59
2022/06/24 04:52:00;;;;;;;12.05;4.38;;;;;;;;;;5063328;28;20031;-60
2022/06/24 04:54:25;;;;;;;12.60;4.20;;;;;;;;;;5064379;28;20020;-60
2022/06/24 04:56:51;;;;;;;11.77;4.00;;;;;;;;;;5065441;28;20498;-60
2022/06/24 04:59:16;;;;;;;10.38;3.00;;;;;;;;;;5066897;28;20033;-60
2022/06/24 05:01:42;;;;;;;9.00;2.65;;;;;;;;;;5066394;28;20024;-59
2022/06/24 05:04:07;;;;;;;11.88;3.35;;;;;;;;;;5070373;28;20035;-59
2022/06/24 05:06:33;;;;;;;8.05;2.80;;;;;;;;;;5064696;28;20499;-58
2022/06/24 05:08:58;;;;;;;11.05;3.40;;;;;;;;;;5064954;28;20041;-59
2022/06/24 05:11:24;;;;;;;13.57;4.50;;;;;;;;;;5061292;28;20021;-59
2022/06/24 05:13:50;;;;;;;16.25;4.13;;;;;;;;;;5069130;28;20494;-59
2022/06/24 05:16:16;;;;;;;10.73;3.67;;;;;;;;;;5061276;28;20709;-58
2022/06/24 05:18:42;;;;;;;21.90;8.88;;;;;;;;;;5059040;28;20033;-58
2022/06/24 05:21:07;;;;;;;18.90;7.55;;;;;;;;;;5055668;28;20039;-59
2022/06/24 05:23:33;;;;;;;10.98;3.85;;;;;;;;;;5060574;28;20033;-58
2022/06/24 05:25:58;;;;;;;11.27;3.25;;;;;;;;;;5056514;28;20487;-58
2022/06/24 05:28:23;;;;;;;10.90;3.10;;;;;;;;;;5063827;28;20044;-57
2022/06/24 05:30:56;;;;;;;8.70;2.90;;;;;;;;;;5061692;28;20454;-58
2022/06/24 05:33:22;;;;;;;13.05;3.47;;;;;;;;;;5061198;28;20028;-58
2022/06/24 05:35:51;;;;;;;10.43;3.20;;;;;;;;;;5053784;28;20032;-55
2022/06/24 05:38:17;;;;;;;7.88;2.92;;;;;;;;;;5062626;28;20028;-57
2022/06/24 05:40:43;;;;;;;10.45;2.95;;;;;;;;;;5059436;28;20116;-57
2022/06/24 05:43:08;;;;;;;7.93;3.20;;;;;;;;;;5059000;28;20460;-58
2022/06/24 05:45:33;;;;;;;10.20;3.75;;;;;;;;;;5064469;28;20158;-58
2022/06/24 05:47:59;;;;;;;8.20;3.28;;;;;;;;;;5063166;28;20086;-58
2022/06/24 05:50:24;;;;;;;8.38;3.58;;;;;;;;;;5062373;28;20037;-58
2022/06/24 05:55:34;;;;;;;6.07;2.72;;;;;;;;;;5064166;28;20597;-59
2022/06/24 05:57:59;;;;;;;5.93;2.50;;;;;;;;;;5064300;28;20111;-58
2022/06/24 06:00:24;;;;;;;7.60;2.80;;;;;;;;;;5063202;28;20040;-58
2022/06/24 06:02:50;;;;;;;11.07;2.70;;;;;;;;;;5062192;28;20058;-58
2022/06/24 06:05:15;;;;;;;11.85;3.00;;;;;;;;;;5063147;28;20234;-58
2022/06/24 06:07:41;;;;;;;6.57;2.70;;;;;;;;;;5060333;28;20059;-57
2022/06/24 06:10:07;;;;;;;6.03;2.70;;;;;;;;;;5060724;28;20028;-58
2022/06/24 06:12:36;;;;;;;8.98;2.63;;;;;;;;;;5057072;28;20078;-58
2022/06/24 06:15:02;;;;;;;9.77;2.80;;;;;;;;;;5065506;28;20459;-57
2022/06/24 06:17:27;;;;;;;6.28;2.63;;;;;;;;;;5065676;28;20037;-58
2022/06/24 06:19:53;;;;;;;8.32;2.88;;;;;;;;;;5063636;28;20349;-58
2022/06/24 06:22:18;;;;;;;4.82;2.30;;;;;;;;;;5058194;28;20040;-58
2022/06/24 06:24:43;;;;;;;6.68;2.22;;;;;;;;;;5065468;28;20309;-58
2022/06/24 06:27:09;;;;;;;11.95;2.65;;;;;;;;;;5054857;28;20063;-59
2022/06/24 06:29:34;;;;;;;4.07;2.60;;;;;;;;;;5059505;28;20056;-59
2022/06/24 06:32:00;;;;;;;7.70;2.38;;;;;;;;;;5056194;28;20025;-58
2022/06/24 06:34:25;;;;;;;1591.57;760.05;;;;;;;;;;5057422;28;20078;-58
2022/06/24 06:36:50;;;;;;;116.05;108.47;;;;;;;;;;5054103;28;20024;-58
2022/06/24 06:39:16;;;;;;;1999.90;999.90;;;;;;;;;;5054909;28;20056;-57
2022/06/24 06:41:42;;;;;;;1999.90;999.90;;;;;;;;;;5057495;28;20028;-58
2022/06/24 06:44:07;;;;;;;1999.90;999.90;;;;;;;;;;5057595;28;20071;-58
2022/06/24 06:46:32;;;;;;;1999.90;999.90;;;;;;;;;;5059397;28;20073;-58
2022/06/24 06:48:58;;;;;;;1999.90;999.90;;;;;;;;;;5068228;28;20104;-59
2022/06/24 06:51:23;;;;;;;1999.90;999.90;;;;;;;;;;5061919;28;20032;-58
2022/06/24 06:53:48;;;;;;;1999.90;999.90;;;;;;;;;;5065771;28;20048;-58
2022/06/24 06:56:14;;;;;;;1999.90;999.90;;;;;;;;;;5069223;28;20065;-57
2022/06/24 06:58:40;;;;;;;1999.90;999.90;;;;;;;;;;5065605;28;20028;-59
2022/06/24 07:01:05;;;;;;;1999.90;999.90;;;;;;;;;;5064290;28;20024;-58
2022/06/24 07:03:30;;;;;;;1999.90;999.90;;;;;;;;;;5067817;28;20388;-59
2022/06/24 07:05:56;;;;;;;1999.90;999.90;;;;;;;;;;5064588;28;20025;-59
2022/06/24 07:08:23;;;;;;;1999.90;999.90;;;;;;;;;;5067353;28;20381;-58
2022/06/24 07:10:51;;;;;;;1999.90;999.90;;;;;;;;;;5064798;28;20024;-58
2022/06/24 07:13:17;;;;;;;1999.90;999.90;;;;;;;;;;5058599;28;20040;-59
2022/06/24 07:15:45;;;;;;;1999.90;999.90;;;;;;;;;;5066588;28;20036;-59
2022/06/24 07:18:11;;;;;;;1999.90;999.90;;;;;;;;;;5065658;28;20523;-58
2022/06/24 07:20:36;;;;;;;1999.90;999.90;;;;;;;;;;5069362;28;20082;-58
2022/06/24 07:23:02;;;;;;;1999.90;999.90;;;;;;;;;;5068233;28;20040;-59
2022/06/24 07:25:29;;;;;;;22.48;10.77;;;;;;;;;;5061305;28;20085;-57
2022/06/24 07:27:55;;;;;;;10.20;7.00;;;;;;;;;;5061840;28;20032;-58
2022/06/24 07:30:21;;;;;;;130.98;65.70;;;;;;;;;;5061481;28;20502;-56
2022/06/24 07:32:47;;;;;;;23.35;21.90;;;;;;;;;;5056479;28;20032;-58
2022/06/24 07:35:13;;;;;;;26.63;25.23;;;;;;;;;;5055289;28;20036;-58
2022/06/24 07:37:38;;;;;;;25.63;24.08;;;;;;;;;;5061562;28;20804;-59
2022/06/24 07:40:04;;;;;;;1999.90;999.90;;;;;;;;;;5058209;28;20103;-59
2022/06/24 07:42:30;;;;;;;1999.90;999.90;;;;;;;;;;5062093;28;20059;-59
2022/06/24 07:44:55;;;;;;;1500.88;750.53;;;;;;;;;;5059248;28;20028;-59
2022/06/24 07:47:21;;;;;;;5.43;2.30;;;;;;;;;;5057645;28;20443;-59
2022/06/24 07:49:46;;;;;;;3.45;1.80;;;;;;;;;;5057600;28;20060;-56
2022/06/24 07:52:11;;;;;;;7.05;1.95;;;;;;;;;;5059582;28;20060;-59
2022/06/24 07:54:38;;;;;;;5.68;1.73;;;;;;;;;;5060753;28;20569;-59
2022/06/24 07:57:04;;;;;;;10.52;1.88;;;;;;;;;;5057813;28;20098;-60
2022/06/24 07:59:32;;;;;;;5.63;1.48;;;;;;;;;;5065232;28;20039;-60
2022/06/24 08:02:00;;;;;;;2.05;1.55;;;;;;;;;;5064603;28;20128;-60
2022/06/24 08:04:30;;;;;;;3.53;1.50;;;;;;;;;;5061104;28;20354;-58
2022/06/24 08:06:56;;;;;;;7.97;1.95;;;;;;;;;;5064372;28;20458;-59
2022/06/24 08:09:27;;;;;;;4.03;1.77;;;;;;;;;;5055344;28;20039;-59
2022/06/24 08:11:53;;;;;;;3.22;1.40;;;;;;;;;;5051770;28;20102;-58
2022/06/24 08:14:19;;;;;;;4.60;1.83;;;;;;;;;;5052772;28;20460;-58
2022/06/24 08:16:45;;;;;;;6.78;1.90;;;;;;;;;;5052109;28;20598;-58
2022/06/24 08:19:11;;;;;;;2.40;1.38;;;;;;;;;;5052284;28;20025;-58
2022/06/24 08:21:36;;;;;;;4.85;1.70;;;;;;;;;;5055900;28;20507;-58
2022/06/24 08:24:02;;;;;;;8.05;2.35;;;;;;;;;;5050406;28;20044;-58
2022/06/24 08:26:28;;;;;;;13.20;2.83;;;;;;;;;;5050427;28;20396;-58
2022/06/24 08:28:54;;;;;;;8.93;2.83;;;;;;;;;;5050868;28;20089;-59
2022/06/24 08:31:20;;;;;;;4.50;2.30;;;;;;;;;;5049620;28;20541;-58
2022/06/24 08:33:45;;;;;;;4.10;2.30;;;;;;;;;;5049612;28;20119;-58
2022/06/24 08:36:11;;;;;;;5.82;2.72;;;;;;;;;;5058105;28;20077;-59
2022/06/24 08:38:37;;;;;;;5.90;2.65;;;;;;;;;;5059632;28;20032;-59
2022/06/24 08:41:03;;;;;;;6.43;2.65;;;;;;;;;;5064369;28;20059;-58
2022/06/24 08:43:34;;;;;;;5.78;2.47;;;;;;;;;;5059412;28;20032;-58
2022/06/24 08:46:03;;;;;;;4.63;2.42;;;;;;;;;;5057906;28;20637;-59
2022/06/24 08:48:31;;;;;;;4.75;2.42;;;;;;;;;;5056169;28;20511;-59
2022/06/24 08:50:57;;;;;;;5.22;2.72;;;;;;;;;;5054458;28;20024;-58
2022/06/24 08:53:25;;;;;;;12.25;2.60;;;;;;;;;;5057358;28;20343;-58
2022/06/24 08:55:50;;;;;;;5.22;3.35;;;;;;;;;;5056978;28;20353;-58
2022/06/24 08:58:18;;;;;;;9.13;3.10;;;;;;;;;;5057480;28;20065;-59
2022/06/24 09:00:44;;;;;;;7.05;2.60;;;;;;;;;;5059706;28;20146;-58
2022/06/24 09:03:09;;;;;;;5.45;2.50;;;;;;;;;;5061686;28;20099;-59
2022/06/24 09:05:36;;;;;;;4.80;2.67;;;;;;;;;;5062769;28;20447;-58
2022/06/24 09:08:09;;;;;;;5.40;3.08;;;;;;;;;;5060030;28;20023;-59
2022/06/24 09:10:36;;;;;;;6.25;2.92;;;;;;;;;;5058523;28;20039;-59
2022/06/24 09:13:03;;;;;;;5.22;3.65;;;;;;;;;;5060693;28;20029;-56
2022/06/24 09:15:29;;;;;;;7.30;2.90;;;;;;;;;;5061358;28;20029;-61
2022/06/24 09:17:55;;;;;;;4.35;3.10;;;;;;;;;;5064041;28;20417;-58
2022/06/24 09:20:22;;;;;;;7.82;2.85;;;;;;;;;;5058928;28;20449;-56
2022/06/24 09:22:48;;;;;;;7.30;3.10;;;;;;;;;;5058379;28;20024;-54
2022/06/24 09:25:14;;;;;;;6.20;3.00;;;;;;;;;;5057699;28;20549;-57
2022/06/24 09:27:45;;;;;;;9.25;3.08;;;;;;;;;;5060662;28;20392;-56
2022/06/24 09:30:20;;;;;;;2.78;2.10;;;;;;;;;;5055832;28;20230;-57
2022/06/24 09:32:53;;;;;;;3.88;2.10;;;;;;;;;;5056571;28;20059;-58
2022/06/24 09:35:20;;;;;;;9.35;2.65;;;;;;;;;;5060848;28;20033;-58
2022/06/24 09:37:48;;;;;;;4.35;2.42;;;;;;;;;;5060784;28;20078;-58
2022/06/24 09:40:23;;;;;;;3.97;2.25;;;;;;;;;;5057707;28;20419;-56
2022/06/24 09:42:52;;;;;;;5.55;2.55;;;;;;;;;;5060817;28;20024;-56
2022/06/24 09:45:17;;;;;;;20.70;2.50;;;;;;;;;;5061870;28;20154;-56
2022/06/24 09:47:48;;;;;;;5.03;2.30;;;;;;;;;;5067958;28;20048;-56
2022/06/24 09:50:15;;;;;;;5.15;2.10;;;;;;;;;;5065901;28;20025;-57
2022/06/24 09:52:41;;;;;;;4.47;2.45;;;;;;;;;;5063403;28;20028;-57
2022/06/24 09:55:07;;;;;;;5.97;2.33;;;;;;;;;;5062275;28;20116;-55
2022/06/24 09:57:32;;;;;;;3.78;2.33;;;;;;;;;;5062787;28;20385;-57
2022/06/24 10:02:43;;;;;;;2.72;1.88;;;;;;;;;;5062192;28;20038;-58
2022/06/24 10:05:12;;;;;;;4.43;2.13;;;;;;;;;;5065671;28;20024;-58
2022/06/24 10:07:41;;;;;;;4.30;2.80;;;;;;;;;;5060190;28;20115;-58
2022/06/24 10:10:07;;;;;;;4.97;2.67;;;;;;;;;;5058750;28;20622;-57
2022/06/24 10:12:38;;;;;;;6.15;2.47;;;;;;;;;;5061727;28;20123;-57
2022/06/24 10:15:04;;;;;;;9.02;2.80;;;;;;;;;;5060018;28;20097;-57
2022/06/24 10:17:31;;;;;;;5.97;2.60;;;;;;;;;;5062971;28;20024;-58
2022/06/24 10:19:58;;;;;;;9.18;2.75;;;;;;;;;;5063183;28;20586;-57
2022/06/24 10:22:37;;;;;;;7.07;2.40;;;;;;;;;;5057382;28;20024;-57
2022/06/24 10:25:03;;;;;;;4.22;1.92;;;;;;;;;;5062559;28;20025;-57
2022/06/24 10:27:59;;;;;;;9.38;5.53;;;;;;;;;;5063499;28;20029;-57
2022/06/24 10:30:40;;;;;;;8.95;4.63;;;;;;;;;;5059603;28;20029;-56
2022/06/24 10:33:19;;;;;;;10.68;4.40;;;;;;;;;;5055220;28;20039;-58
2022/06/24 10:36:00;;;;;;;13.55;5.78;;;;;;;;;;5059068;28;20519;-58
2022/06/24 10:38:34;;;;;;;6.88;2.75;;;;;;;;;;5072656;28;20059;-58
2022/06/24 10:41:02;;;;;;;6.45;2.80;;;;;;;;;;5068090;28;20028;-56
2022/06/24 10:43:36;;;;;;;4.15;2.97;;;;;;;;;;5067030;28;20028;-56
2022/06/24 10:46:11;;;;;;;4.93;2.80;;;;;;;;;;5062359;28;20032;-58
2022/06/24 10:48:51;;;;;;;7.05;3.10;;;;;;;;;;5067523;28;20210;-59
2022/06/24 10:51:19;;;;;;;7.43;3.30;;;;;;;;;;5066153;28;20032;-59
2022/06/24 10:54:02;;;;;;;6.18;2.90;;;;;;;;;;5066361;28;20250;-57
2022/06/24 10:56:45;;;;;;;7.20;3.15;;;;;;;;;;5061904;28;20024;-59
2022/06/24 10:59:15;;;;;;;4.05;2.00;;;;;;;;;;5063294;28;20056;-59
2022/06/24 11:01:44;;;;;;;2.47;2.13;;;;;;;;;;5067608;28;20020;-57
2022/06/24 11:04:25;;;;;;;4.07;2.30;;;;;;;;;;5063886;28;20040;-60
2022/06/24 11:07:11;;;;;;;3.05;1.77;;;;;;;;;;5063157;28;20027;-58
2022/06/24 11:09:36;;;;;;;5.40;2.72;;;;;;;;;;5060440;28;20031;-58
2022/06/24 11:12:04;;;;;;;2.40;2.20;;;;;;;;;;5057285;28;20029;-60
2022/06/24 11:14:30;;;;;;;10.10;5.65;;;;;;;;;;5053200;28;20020;-57
2022/06/24 11:16:55;;;;;;;13.35;5.03;;;;;;;;;;5058022;28;20500;-58
2022/06/24 11:19:20;;;;;;;13.93;8.98;;;;;;;;;;5060597;28;20032;-57
2022/06/24 11:21:50;;;;;;;15.20;8.82;;;;;;;;;;5058214;28;20020;-58
2022/06/24 11:24:20;;;;;;;8.32;5.80;;;;;;;;;;5053931;28;20033;-58
2022/06/24 11:27:08;;;;;;;9.02;6.35;;;;;;;;;;5053543;28;20028;-58
2022/06/24 11:29:56;;;;;;;8.23;4.55;;;;;;;;;;5053856;28;20021;-59
2022/06/24 11:32:22;;;;;;;12.52;9.15;;;;;;;;;;5050742;28;20029;-58
2022/06/24 11:34:48;;;;;;;4.85;3.08;;;;;;;;;;5055167;28;20032;-58
2022/06/24 11:37:20;;;;;;;5.13;2.45;;;;;;;;;;5059869;28;20155;-59
2022/06/24 11:39:46;;;;;;;6.97;3.03;;;;;;;;;;5056290;28;20120;-57
2022/06/24 11:42:15;;;;;;;5.32;2.38;;;;;;;;;;5055898;28;20079;-57
2022/06/24 11:44:41;;;;;;;7.82;2.90;;;;;;;;;;5055092;28;20021;-58
2022/06/24 11:47:07;;;;;;;5.75;4.18;;;;;;;;;;5053130;28;20040;-57
2022/06/24 11:49:34;;;;;;;3.58;2.53;;;;;;;;;;5056701;28;20370;-58
2022/06/24 11:52:01;;;;;;;5.35;3.17;;;;;;;;;;5056096;28;20033;-57
2022/06/24 11:54:31;;;;;;;6.22;2.50;;;;;;;;;;5054372;28;20032;-57
2022/06/24 11:56:57;;;;;;;4.82;2.35;;;;;;;;;;5054789;28;20062;-57
2022/06/24 11:59:24;;;;;;;5.63;2.33;;;;;;;;;;5054735;28;20100;-59
2022/06/24 12:01:51;;;;;;;4.63;2.35;;;;;;;;;;5052767;28;20033;-58
2022/06/24 12:04:17;;;;;;;8.75;3.08;;;;;;;;;;5051542;28;20409;-58
2022/06/24 12:06:44;;;;;;;5.22;2.92;;;;;;;;;;5058222;28;20021;-58
2022/06/24 12:09:19;;;;;;;3.40;2.03;;;;;;;;;;5055157;28;20055;-59
2022/06/24 12:11:46;;;;;;;4.75;2.30;;;;;;;;;;5055126;28;20025;-59
2022/06/24 12:14:14;;;;;;;4.63;2.38;;;;;;;;;;5053306;28;20079;-58
2022/06/24 12:16:59;;;;;;;3.63;2.13;;;;;;;;;;5057833;28;20049;-58
2022/06/24 12:19:36;;;;;;;6.07;2.20;;;;;;;;;;5056971;28;20020;-56
2022/06/24 12:22:05;;;;;;;4.13;2.40;;;;;;;;;;5051682;28;20028;-58
2022/06/24 12:24:31;;;;;;;6.55;2.50;;;;;;;;;;5054393;28;20522;-58
2022/06/24 12:26:58;;;;;;;2.78;2.05;;;;;;;;;;5055896;28;20058;-59
2022/06/24 12:29:32;;;;;;;4.40;2.33;;;;;;;;;;5056243;28;20032;-59
2022/06/24 12:31:58;;;;;;;5.05;2.50;;;;;;;;;;5052420;28;20029;-58
2022/06/24 12:34:29;;;;;;;6.30;2.20;;;;;;;;;;5051699;28;20051;-59
2022/06/24 12:36:57;;;;;;;5.93;2.30;;;;;;;;;;5054808;28;20400;-59
2022/06/24 12:39:28;;;;;;;5.40;2.20;;;;;;;;;;5054753;28;20095;-57
2022/06/24 12:41:53;;;;;;;3.60;2.00;;;;;;;;;;5065026;28;20419;-57
2022/06/24 12:44:18;;;;;;;3.25;1.83;;;;;;;;;;5064746;28;20028;-58
2022/06/24 12:52:39;;;;;;;8.05;2.45;;;;;;;;;;5062238;28;20657;-59
2022/06/24 12:55:07;;;;;;;4.85;2.50;;;;;;;;;;5059908;28;20036;-59
2022/06/24 12:57:33;;;;;;;4.45;2.40;;;;;;;;;;5066095;28;20046;-60
2022/06/24 12:59:59;;;;;;;7.72;2.40;;;;;;;;;;5062444;28;20063;-60
2022/06/24 13:02:24;;;;;;;6.88;2.50;;;;;;;;;;5060315;28;20055;-62
2022/06/24 13:04:50;;;;;;;3.63;2.63;;;;;;;;;;5058805;28;20028;-57
2022/06/24 13:07:15;;;;;;;4.32;2.08;;;;;;;;;;5053523;28;20017;-59
2022/06/24 13:09:41;;;;;;;3.97;2.03;;;;;;;;;;5063457;28;20075;-60
2022/06/24 13:12:07;;;;;;;3.83;2.67;;;;;;;;;;5061839;28;20558;-59
2022/06/24 13:14:32;;;;;;;6.15;2.75;;;;;;;;;;5055944;28;20036;-61
2022/06/24 13:16:58;;;;;;;7.35;2.50;;;;;;;;;;5051603;28;20025;-60
2022/06/24 13:19:23;;;;;;;5.10;2.78;;;;;;;;;;5054674;28;20074;-60
2022/06/24 13:21:49;;;;;;;10.18;3.17;;;;;;;;;;5056625;28;20024;-60
2022/06/24 13:24:14;;;;;;;5.22;2.83;;;;;;;;;;5061391;28;20032;-59
2022/06/24 13:26:40;;;;;;;4.90;2.90;;;;;;;;;;5055076;28;20023;-59
2022/06/24 13:29:05;;;;;;;8.75;4.28;;;;;;;;;;5053259;28;20033;-58
2022/06/24 13:31:31;;;;;;;5.90;3.22;;;;;;;;;;5055351;28;20112;-59
2022/06/24 13:33:56;;;;;;;5.88;3.33;;;;;;;;;;5054530;28;20431;-59
2022/06/24 13:36:22;;;;;;;7.90;3.45;;;;;;;;;;5057915;28;20028;-59
2022/06/24 13:38:48;;;;;;;4.03;3.03;;;;;;;;;;5058032;28;20032;-58
2022/06/24 13:41:13;;;;;;;5.40;2.58;;;;;;;;;;5060572;28;20039;-60
2022/06/24 13:43:39;;;;;;;4.03;2.75;;;;;;;;;;5056810;28;20112;-58
2022/06/24 13:46:04;;;;;;;7.03;3.00;;;;;;;;;;5053427;28;20021;-58
2022/06/24 13:48:29;;;;;;;5.85;2.88;;;;;;;;;;5053571;28;20115;-58
2022/06/24 13:50:55;;;;;;;5.93;2.90;;;;;;;;;;5059682;28;20038;-59
2022/06/24 13:53:20;;;;;;;6.22;2.70;;;;;;;;;;5064042;28;20115;-58
2022/06/24 13:55:46;;;;;;;8.60;2.80;;;;;;;;;;5058305;28;20100;-58
2022/06/24 13:58:12;;;;;;;5.78;2.58;;;;;;;;;;5058819;28;20029;-58
2022/06/24 14:00:38;;;;;;;4.95;2.67;;;;;;;;;;5059771;28;20024;-58
2022/06/24 14:03:04;;;;;;;5.38;2.70;;;;;;;;;;5064627;28;20117;-57
2022/06/24 14:05:29;;;;;;;6.35;2.72;;;;;;;;;;5057318;28;20057;-58
2022/06/24 14:07:54;;;;;;;6.57;3.33;;;;;;;;;;5055587;28;20450;-58
2022/06/24 14:10:20;;;;;;;4.10;3.38;;;;;;;;;;5062797;28;20025;-57
2022/06/24 14:12:45;;;;;;;7.32;3.50;;;;;;;;;;5065017;28;20032;-56
2022/06/24 14:15:11;;;;;;;5.88;3.13;;;;;;;;;;5062573;28;20016;-58
2022/06/24 14:17:37;;;;;;;9.07;2.88;;;;;;;;;;5059590;28;20114;-57
2022/06/24 14:20:04;;;;;;;6.75;2.90;;;;;;;;;;5057515;28;20029;-58
2022/06/24 14:22:29;;;;;;;3.85;3.20;;;;;;;;;;5061536;28;20503;-58
2022/06/24 14:24:55;;;;;;;5.18;3.10;;;;;;;;;;5059692;28;20118;-58
2022/06/24 14:27:20;;;;;;;4.85;2.67;;;;;;;;;;5060327;28;20033;-57
2022/06/24 14:29:46;;;;;;;4.88;2.60;;;;;;;;;;5056867;28;20036;-57
2022/06/24 14:32:11;;;;;;;3.90;2.35;;;;;;;;;;5053650;28;20056;-57
2022/06/24 14:34:37;;;;;;;5.35;2.38;;;;;;;;;;5063122;28;20047;-57
2022/06/24 14:37:02;;;;;;;5.53;2.67;;;;;;;;;;5060373;28;20021;-58
2022/06/24 14:42:12;;;;;;;2.65;1.88;;;;;;;;;;5056460;28;20439;-58
2022/06/24 14:44:38;;;;;;;4.88;2.40;;;;;;;;;;5067786;28;20037;-58
2022/06/24 14:47:06;;;;;;;3.60;2.20;;;;;;;;;;5059312;28;20388;-57
2022/06/24 14:49:32;;;;;;;4.18;2.20;;;;;;;;;;5062239;28;20029;-59
2022/06/24 14:51:59;;;;;;;4.82;2.03;;;;;;;;;;5059960;28;20036;-59
2022/06/24 14:54:25;;;;;;;5.05;2.30;;;;;;;;;;5056612;28;20056;-57